createdAt,value
2018-11-03T00:00:51.316Z,32.80
2018-11-03T00:03:20.107Z,31.73
2018-11-03T00:05:48.932Z,32.83
2018-11-03T00:08:17.814Z,34.03
2018-11-03T00:10:46.567Z,29.57
2018-11-03T00:13:15.513Z,29.67
2018-11-03T00:15:44.478Z,31.33
2018-11-03T00:18:13.313Z,31.43
2018-11-03T00:20:42.165Z,29.40
2018-11-03T00:23:10.940Z,29.67
2018-11-03T00:25:39.739Z,28.10
2018-11-03T00:28:08.646Z,28.77
2018-11-03T00:30:37.472Z,27.03
2018-11-03T00:33:06.267Z,29.83
2018-11-03T00:35:34.994Z,32.63
2018-11-03T00:38:04.006Z,25.63
2018-11-03T00:40:32.868Z,30.17
2018-11-03T00:43:01.712Z,26.97
2018-11-03T00:45:30.623Z,28.53
2018-11-03T00:47:59.555Z,26.00
2018-11-03T00:50:28.448Z,27.07
2018-11-03T00:52:57.360Z,26.00
2018-11-03T00:55:26.407Z,25.53
2018-11-03T00:57:55.475Z,26.63
2018-11-03T01:00:24.577Z,28.43
2018-11-03T01:02:53.390Z,29.33
2018-11-03T01:05:22.483Z,31.37
2018-11-03T01:07:51.355Z,27.83
2018-11-03T01:10:20.243Z,29.37
2018-11-03T01:12:49.041Z,30.57
2018-11-03T01:15:18.453Z,28.43
2018-11-03T01:17:47.320Z,27.63
2018-11-03T01:20:17.157Z,27.23
2018-11-03T01:22:46.173Z,29.33
2018-11-03T01:25:15.274Z,28.40
2018-11-03T01:27:44.043Z,26.97
2018-11-03T01:30:15.472Z,25.80
2018-11-03T01:32:44.283Z,25.10
2018-11-03T01:35:13.243Z,27.77
2018-11-03T01:37:42.065Z,24.67
2018-11-03T01:40:12.375Z,30.83
2018-11-03T01:42:41.160Z,30.50
2018-11-03T01:45:10.089Z,24.63
2018-11-03T01:47:38.688Z,23.50
2018-11-03T01:50:09.175Z,23.50
2018-11-03T01:52:38.552Z,23.77
2018-11-03T01:55:07.775Z,24.77
2018-11-03T01:57:37.016Z,24.63
2018-11-03T02:00:06.130Z,24.80
2018-11-03T02:02:34.907Z,24.13
2018-11-03T02:05:03.747Z,28.00
2018-11-03T02:07:32.567Z,24.43
2018-11-03T02:10:01.301Z,27.30
2018-11-03T02:12:30.174Z,24.43
2018-11-03T02:14:58.795Z,27.83
2018-11-03T02:17:27.755Z,23.77
2018-11-03T02:19:56.463Z,24.27
2018-11-03T02:22:25.289Z,22.43
2018-11-03T02:24:54.068Z,20.03
2018-11-03T02:27:23.135Z,20.50
2018-11-03T02:29:51.885Z,26.33
2018-11-03T02:32:20.674Z,23.63
2018-11-03T02:34:49.364Z,26.10
2018-11-03T02:37:18.381Z,25.87
2018-11-03T02:39:47.311Z,24.23
2018-11-03T02:42:16.170Z,24.97
2018-11-03T02:44:44.917Z,28.07
2018-11-03T02:47:13.775Z,27.57
2018-11-03T02:49:42.485Z,25.20
2018-11-03T02:52:11.416Z,27.17
2018-11-03T02:54:40.254Z,24.97
2018-11-03T02:57:09.088Z,24.43
2018-11-03T02:59:38.095Z,26.47
2018-11-03T03:02:07.119Z,24.20
2018-11-03T03:04:35.947Z,23.20
2018-11-03T03:07:04.984Z,25.00
2018-11-03T03:09:33.947Z,26.30
2018-11-03T03:12:02.933Z,24.10
2018-11-03T03:14:31.628Z,25.23
2018-11-03T03:17:00.446Z,23.93
2018-11-03T03:19:29.179Z,23.97
2018-11-03T03:21:57.942Z,23.97
2018-11-03T03:24:26.570Z,26.00
2018-11-03T03:26:55.329Z,26.03
2018-11-03T03:29:24.106Z,23.37
2018-11-03T03:31:52.841Z,23.63
2018-11-03T03:34:21.635Z,22.87
2018-11-03T03:36:50.485Z,27.20
2018-11-03T03:39:19.380Z,22.87
2018-11-03T03:41:48.106Z,21.07
2018-11-03T03:44:16.965Z,21.53
2018-11-03T03:46:45.731Z,22.57
2018-11-03T03:49:14.617Z,22.90
2018-11-03T03:51:43.192Z,20.57
2018-11-03T03:54:11.965Z,20.57
2018-11-03T03:56:40.809Z,21.53
2018-11-03T03:59:09.552Z,21.80
2018-11-03T04:01:38.174Z,20.57
2018-11-03T04:04:07.153Z,18.83
2018-11-03T04:06:35.873Z,17.33
2018-11-03T04:09:05.549Z,18.23
2018-11-03T04:11:34.186Z,17.20
2018-11-03T04:14:03.139Z,27.70
2018-11-03T04:16:31.951Z,22.07
2018-11-03T04:19:00.660Z,15.83
2018-11-03T04:21:33.389Z,18.80
2018-11-03T04:24:02.296Z,17.73
2018-11-03T04:26:31.046Z,16.60
2018-11-03T04:28:59.913Z,18.37
2018-11-03T04:31:28.749Z,19.80
2018-11-03T04:33:57.858Z,16.07
2018-11-03T04:36:26.709Z,25.37
2018-11-03T04:38:55.564Z,20.70
2018-11-03T04:41:24.439Z,21.50
2018-11-03T04:43:53.223Z,17.87
2018-11-03T04:46:22.047Z,17.43
2018-11-03T04:48:56.181Z,19.27
2018-11-03T04:51:24.991Z,18.10
2018-11-03T04:53:53.915Z,16.80
2018-11-03T04:56:22.850Z,17.03
2018-11-03T04:58:51.738Z,17.37
2018-11-03T05:01:20.579Z,17.00
2018-11-03T05:03:49.372Z,16.87
2018-11-03T05:06:18.432Z,18.00
2018-11-03T05:08:47.437Z,16.83
2018-11-03T05:11:16.419Z,19.70
2018-11-03T05:13:45.094Z,16.80
2018-11-03T05:16:13.984Z,19.57
2018-11-03T05:18:42.947Z,14.83
2018-11-03T05:21:11.812Z,16.00
2018-11-03T05:23:40.361Z,16.63
2018-11-03T05:26:09.256Z,20.17
2018-11-03T05:28:38.201Z,18.60
2018-11-03T05:31:07.138Z,15.77
2018-11-03T05:33:35.985Z,15.77
2018-11-03T05:36:04.915Z,16.80
2018-11-03T05:38:34.035Z,19.17
2018-11-03T05:41:02.879Z,16.70
2018-11-03T05:43:31.987Z,19.67
2018-11-03T05:46:00.691Z,17.17
2018-11-03T05:48:29.558Z,19.70
2018-11-03T05:50:58.494Z,16.50
2018-11-03T05:53:27.290Z,18.20
2018-11-03T05:55:56.180Z,21.60
2018-11-03T05:58:25.023Z,18.27
2018-11-03T06:00:53.960Z,20.57
2018-11-03T06:03:22.872Z,17.10
2018-11-03T06:05:51.890Z,18.47
2018-11-03T06:08:20.692Z,20.63
2018-11-03T06:10:49.486Z,16.57
2018-11-03T06:13:18.123Z,16.17
2018-11-03T06:15:47.133Z,15.77
2018-11-03T06:18:15.863Z,16.60
2018-11-03T06:20:51.092Z,16.67
2018-11-03T06:23:20.321Z,19.43
2018-11-03T06:25:49.048Z,17.47
2018-11-03T06:28:17.737Z,14.63
2018-11-03T06:34:21.986Z,16.13
2018-11-03T06:36:50.797Z,15.30
2018-11-03T06:39:19.379Z,12.57
2018-11-03T06:41:48.138Z,18.40
2018-11-03T06:44:16.836Z,18.30
2018-11-03T06:46:45.724Z,14.90
2018-11-03T06:49:19.333Z,18.40
2018-11-03T06:51:48.463Z,21.40
2018-11-03T06:54:17.172Z,22.00
2018-11-03T06:56:46.127Z,26.60
2018-11-03T06:59:15.392Z,22.37
2018-11-03T07:01:44.361Z,21.37
2018-11-03T07:04:13.123Z,22.23
2018-11-03T07:06:41.756Z,23.47
2018-11-03T07:09:11.936Z,21.87
2018-11-03T07:11:41.027Z,22.23
2018-11-03T07:14:10.458Z,24.03
2018-11-03T07:16:39.260Z,21.07
2018-11-03T07:19:07.988Z,16.40
2018-11-03T07:21:36.853Z,23.97
2018-11-03T07:24:05.915Z,21.37
2018-11-03T07:26:34.643Z,18.80
2018-11-03T07:29:03.243Z,17.83
2018-11-03T07:31:31.934Z,15.37
2018-11-03T07:34:00.639Z,18.40
2018-11-03T07:36:29.475Z,17.50
2018-11-03T07:38:58.416Z,14.10
2018-11-03T07:41:27.258Z,18.53
2018-11-03T07:43:55.914Z,16.37
2018-11-03T07:46:24.909Z,14.53
2018-11-03T07:48:53.842Z,20.53
2018-11-03T07:51:22.556Z,16.17
2018-11-03T07:53:51.371Z,17.47
2018-11-03T07:56:20.164Z,18.07
2018-11-03T07:58:48.756Z,25.67
2018-11-03T08:01:17.609Z,30.00
2018-11-03T08:03:46.497Z,33.73
2018-11-03T08:06:15.308Z,30.00
2018-11-03T08:08:43.875Z,30.50
2018-11-03T08:11:12.724Z,33.00
2018-11-03T08:13:41.568Z,31.20
2018-11-03T08:16:10.345Z,29.40
2018-11-03T08:18:40.040Z,24.87
2018-11-03T08:21:08.856Z,24.83
2018-11-03T08:23:37.551Z,31.87
2018-11-03T08:26:06.317Z,23.93
2018-11-03T08:28:34.998Z,24.57
2018-11-03T08:31:03.827Z,23.57
2018-11-03T08:33:32.644Z,24.13
2018-11-03T08:36:01.375Z,25.20
2018-11-03T08:38:30.185Z,28.57
2018-11-03T08:40:59.071Z,27.07
2018-11-03T08:43:27.964Z,29.60
2018-11-03T08:45:56.800Z,25.70
2018-11-03T08:48:25.604Z,27.13
2018-11-03T08:50:54.267Z,25.47
2018-11-03T08:53:22.985Z,23.83
2018-11-03T08:55:51.780Z,27.77
2018-11-03T08:58:20.532Z,25.40
2018-11-03T09:00:49.357Z,21.27
2018-11-03T09:03:18.199Z,20.57
2018-11-03T09:05:47.230Z,24.57
2018-11-03T09:08:16.039Z,27.13
2018-11-03T09:10:44.911Z,28.80
2018-11-03T09:13:13.681Z,28.03
2018-11-03T09:15:42.716Z,25.27
2018-11-03T09:18:11.483Z,25.90
2018-11-03T09:20:40.370Z,29.80
2018-11-03T09:23:09.095Z,26.63
2018-11-03T09:25:37.889Z,28.20
2018-11-03T09:28:06.647Z,27.60
2018-11-03T09:30:35.569Z,30.40
2018-11-03T09:33:04.848Z,30.40
2018-11-03T09:35:33.546Z,30.73
2018-11-03T09:38:02.457Z,31.97
2018-11-03T09:40:31.369Z,26.37
2018-11-03T09:43:06.948Z,28.70
2018-11-03T09:45:35.752Z,33.70
2018-11-03T09:48:04.511Z,31.97
2018-11-03T09:50:33.270Z,23.73
2018-11-03T09:53:02.028Z,25.73
2018-11-03T09:55:30.959Z,26.63
2018-11-03T09:57:59.662Z,26.17
2018-11-03T10:00:28.428Z,24.90
2018-11-03T10:02:57.230Z,23.70
2018-11-03T10:05:25.934Z,30.63
2018-11-03T10:07:54.917Z,26.50
2018-11-03T10:10:23.727Z,28.77
2018-11-03T10:12:52.408Z,26.33
2018-11-03T10:15:21.223Z,25.40
2018-11-03T10:17:49.943Z,24.63
2018-11-03T10:20:18.826Z,28.07
2018-11-03T10:22:47.614Z,26.27
2018-11-03T10:25:18.412Z,17.83
2018-11-03T10:27:47.642Z,21.13
2018-11-03T10:30:17.090Z,20.87
2018-11-03T10:32:46.297Z,28.00
2018-11-03T10:35:15.416Z,25.20
2018-11-03T10:37:44.450Z,22.63
2018-11-03T10:40:14.689Z,21.97
2018-11-03T10:42:43.589Z,18.20
2018-11-03T10:45:13.456Z,17.00
2018-11-03T10:47:42.284Z,17.10
2018-11-03T10:50:13.662Z,19.10
2018-11-03T10:52:43.123Z,20.30
2018-11-03T10:55:13.141Z,26.80
2018-11-03T10:57:42.117Z,21.07
2018-11-03T11:00:17.828Z,18.33
2018-11-03T11:02:52.203Z,21.70
2018-11-03T11:05:26.174Z,20.17
2018-11-03T11:08:00.490Z,18.10
2018-11-03T11:10:34.731Z,18.80
2018-11-03T11:13:14.390Z,24.10
2018-11-03T11:15:43.062Z,24.00
2018-11-03T11:18:11.951Z,23.30
2018-11-03T11:20:40.628Z,21.53
2018-11-03T11:23:09.640Z,23.50
2018-11-03T11:25:38.424Z,27.33
2018-11-03T11:28:07.355Z,22.97
2018-11-03T11:30:37.205Z,20.73
2018-11-03T11:33:07.553Z,20.47
2018-11-03T11:35:36.406Z,26.13
2018-11-03T11:38:05.969Z,18.60
2018-11-03T11:40:35.044Z,23.33
2018-11-03T11:43:04.050Z,19.43
2018-11-03T11:45:32.829Z,20.43
2018-11-03T11:48:01.663Z,19.20
2018-11-03T11:50:30.461Z,22.45
2018-11-03T11:52:59.121Z,25.87
2018-11-03T11:55:27.715Z,19.80
2018-11-03T11:57:56.361Z,26.73
2018-11-03T12:00:24.804Z,108.53
2018-11-03T12:02:53.221Z,91.57
2018-11-03T12:05:21.667Z,26.90
2018-11-03T12:07:50.392Z,30.83
2018-11-03T12:10:18.979Z,34.53
2018-11-03T12:12:47.343Z,47.77
2018-11-03T12:15:16.199Z,24.57
2018-11-03T12:17:44.933Z,34.27
2018-11-03T12:20:13.711Z,24.30
2018-11-03T12:22:42.452Z,29.53
2018-11-03T12:25:11.951Z,28.23
2018-11-03T12:27:41.033Z,22.37
2018-11-03T12:30:12.417Z,21.80
2018-11-03T12:32:41.167Z,20.23
2018-11-03T12:35:10.254Z,27.10
2018-11-03T12:37:39.307Z,24.27
2018-11-03T12:40:11.391Z,24.47
2018-11-03T12:42:40.063Z,19.70
2018-11-03T12:45:09.811Z,28.93
2018-11-03T12:47:38.438Z,24.87
2018-11-03T12:50:08.649Z,26.07
2018-11-03T12:52:37.222Z,25.67
2018-11-03T12:55:07.568Z,24.67
2018-11-03T12:57:36.392Z,27.37
2018-11-03T13:00:05.687Z,27.67
2018-11-03T13:02:34.333Z,25.23
2018-11-03T13:05:03.149Z,22.63
2018-11-03T13:07:31.909Z,25.07
2018-11-03T13:10:00.754Z,23.47
2018-11-03T13:12:29.579Z,21.07
2018-11-03T13:14:58.324Z,21.93
2018-11-03T13:17:27.167Z,21.40
2018-11-03T13:19:56.465Z,30.63
2018-11-03T13:22:25.295Z,28.23
2018-11-03T13:24:54.044Z,24.73
2018-11-03T13:27:22.743Z,27.97
2018-11-03T13:29:51.630Z,25.87
2018-11-03T13:32:20.535Z,26.87
2018-11-03T13:34:49.450Z,29.30
2018-11-03T13:37:18.223Z,25.23
2018-11-03T13:39:46.992Z,26.93
2018-11-03T13:42:15.502Z,26.10
2018-11-03T13:44:44.301Z,22.47
2018-11-03T13:47:13.132Z,25.83
2018-11-03T13:49:41.894Z,24.97
2018-11-03T13:52:10.644Z,23.63
2018-11-03T13:54:39.441Z,26.70
2018-11-03T13:57:08.150Z,25.57
2018-11-03T13:59:36.971Z,34.43
2018-11-03T14:02:11.503Z,33.10
2018-11-03T14:04:40.578Z,27.07
2018-11-03T14:07:09.396Z,27.77
2018-11-03T14:09:38.251Z,29.07
2018-11-03T14:12:06.912Z,30.37
2018-11-03T14:14:35.749Z,30.00
2018-11-03T14:17:04.465Z,25.33
2018-11-03T14:19:33.217Z,25.10
2018-11-03T14:22:02.024Z,33.03
2018-11-03T14:24:30.805Z,30.50
2018-11-03T14:26:59.546Z,27.60
2018-11-03T14:29:28.262Z,30.40
2018-11-03T14:31:56.994Z,32.30
2018-11-03T14:34:25.833Z,32.90
2018-11-03T14:36:54.588Z,29.00
2018-11-03T14:39:23.884Z,30.63
2018-11-03T14:41:52.707Z,34.53
2018-11-03T14:44:21.332Z,36.67
2018-11-03T14:46:50.420Z,32.40
2018-11-03T14:49:19.110Z,28.87
2018-11-03T14:51:47.886Z,28.53
2018-11-03T14:54:16.861Z,30.90
2018-11-03T14:56:45.545Z,32.10
2018-11-03T14:59:14.348Z,30.70
2018-11-03T15:01:43.167Z,29.97
2018-11-03T15:04:11.904Z,31.80
2018-11-03T15:06:40.820Z,31.73
2018-11-03T15:09:09.782Z,33.70
2018-11-03T15:11:38.293Z,30.93
2018-11-03T15:14:08.540Z,34.57
2018-11-03T15:16:37.349Z,31.30
2018-11-03T15:19:06.408Z,25.67
2018-11-03T15:21:35.160Z,31.70
2018-11-03T15:24:04.029Z,34.67
2018-11-03T15:26:32.584Z,28.80
2018-11-03T15:29:01.365Z,26.60
2018-11-03T15:31:30.376Z,26.17
2018-11-03T15:33:59.293Z,27.30
2018-11-03T15:36:28.057Z,31.23
2018-11-03T15:38:56.660Z,28.70
2018-11-03T15:41:25.532Z,36.57
2018-11-03T15:43:54.132Z,50.37
2018-11-03T15:46:22.940Z,56.20
2018-11-03T15:48:51.818Z,48.17
2018-11-03T15:51:20.712Z,40.27
2018-11-03T15:53:49.596Z,33.10
2018-11-03T15:56:18.265Z,33.80
2018-11-03T15:58:47.182Z,29.40
2018-11-03T16:01:16.075Z,34.47
2018-11-03T16:03:44.731Z,29.67
2018-11-03T16:06:13.545Z,26.27
2018-11-03T16:08:42.136Z,32.47
2018-11-03T16:11:10.801Z,23.53
2018-11-03T16:13:39.561Z,29.47
2018-11-03T16:16:08.656Z,27.23
2018-11-03T16:18:37.305Z,24.63
2018-11-03T16:21:06.417Z,29.53
2018-11-03T16:23:35.061Z,28.23
2018-11-03T16:26:04.091Z,29.93
2018-11-03T16:28:32.747Z,34.03
2018-11-03T16:31:01.340Z,30.23
2018-11-03T16:33:30.211Z,28.77
2018-11-03T16:35:59.223Z,25.40
2018-11-03T16:38:28.127Z,30.13
2018-11-03T16:40:56.873Z,31.60
2018-11-03T16:43:25.569Z,30.53
2018-11-03T16:45:54.339Z,29.50
2018-11-03T16:48:23.108Z,27.67
2018-11-03T16:50:51.760Z,27.00
2018-11-03T16:53:20.465Z,27.13
2018-11-03T16:55:49.286Z,28.03
2018-11-03T16:58:18.122Z,28.30
2018-11-03T17:00:46.954Z,33.70
2018-11-03T17:03:15.736Z,36.33
2018-11-03T17:05:44.347Z,34.80
2018-11-03T17:08:13.106Z,30.87
2018-11-03T17:10:42.027Z,28.77
2018-11-03T17:13:10.963Z,30.33
2018-11-03T17:15:39.582Z,34.55
2018-11-03T17:18:08.387Z,31.63
2018-11-03T17:20:37.144Z,34.60
2018-11-03T17:23:05.917Z,29.60
2018-11-03T17:25:34.534Z,25.97
2018-11-03T17:28:03.434Z,29.07
2018-11-03T17:30:32.121Z,33.60
2018-11-03T17:33:00.816Z,31.27
2018-11-03T17:35:29.616Z,31.77
2018-11-03T17:37:58.308Z,33.40
2018-11-03T17:40:26.912Z,27.00
2018-11-03T17:42:55.600Z,33.83
2018-11-03T17:45:24.439Z,31.23
2018-11-03T17:47:53.184Z,29.20
2018-11-03T17:50:21.967Z,30.53
2018-11-03T17:52:50.595Z,29.63
2018-11-03T17:55:19.328Z,40.70
2018-11-03T17:57:47.977Z,30.07
2018-11-03T18:00:17.190Z,32.83
2018-11-03T18:02:46.381Z,38.00
2018-11-03T18:05:15.769Z,30.77
2018-11-03T18:07:44.478Z,28.27
2018-11-03T18:10:13.418Z,27.47
2018-11-03T18:12:42.597Z,31.50
2018-11-03T18:15:11.753Z,24.93
2018-11-03T18:17:40.756Z,29.47
2018-11-03T18:20:10.094Z,24.57
2018-11-03T18:22:39.149Z,23.53
2018-11-03T18:25:08.180Z,24.20
2018-11-03T18:27:36.984Z,26.87
2018-11-03T18:30:06.798Z,28.43
2018-11-03T18:32:35.688Z,27.60
2018-11-03T18:35:04.568Z,23.80
2018-11-03T18:37:33.307Z,25.70
2018-11-03T18:40:02.167Z,22.93
2018-11-03T18:42:30.897Z,22.83
2018-11-03T18:44:59.721Z,23.23
2018-11-03T18:47:28.552Z,21.93
2018-11-03T18:49:57.137Z,25.77
2018-11-03T18:52:25.784Z,24.67
2018-11-03T18:54:54.584Z,23.90
2018-11-03T18:57:23.218Z,24.37
2018-11-03T18:59:52.037Z,23.90
2018-11-03T19:02:20.925Z,30.93
2018-11-03T19:04:49.734Z,31.33
2018-11-03T19:07:18.436Z,32.57
2018-11-03T19:09:47.176Z,25.10
2018-11-03T19:12:16.064Z,30.90
2018-11-03T19:14:44.984Z,27.57
2018-11-03T19:17:13.714Z,25.60
2018-11-03T19:19:42.481Z,28.90
2018-11-03T19:22:11.560Z,28.57
2018-11-03T19:24:40.470Z,26.57
2018-11-03T19:27:09.647Z,27.20
2018-11-03T19:29:38.472Z,34.90
2018-11-03T19:32:07.538Z,30.03
2018-11-03T19:34:36.514Z,26.97
2018-11-03T19:37:05.544Z,26.53
2018-11-03T19:39:34.453Z,30.07
2018-11-03T19:42:03.389Z,31.93
2018-11-03T19:44:32.324Z,29.10
2018-11-03T19:47:01.515Z,28.63
2018-11-03T19:49:31.799Z,28.90
2018-11-03T19:52:01.758Z,27.73
2018-11-03T19:54:32.190Z,23.93
2018-11-03T19:57:03.175Z,28.20
2018-11-03T19:59:33.867Z,45.90
2018-11-03T20:02:05.158Z,31.17
2018-11-03T20:04:36.330Z,35.97
2018-11-03T20:07:07.863Z,33.67
2018-11-03T20:09:39.168Z,32.10
2018-11-03T20:12:11.610Z,36.43
2018-11-03T20:14:42.923Z,31.83
2018-11-03T20:17:13.671Z,32.77
2018-11-03T20:19:44.851Z,30.03
2018-11-03T20:22:16.013Z,33.03
2018-11-03T20:24:47.244Z,35.67
2018-11-03T20:27:18.534Z,28.77
2018-11-03T20:36:40.496Z,37.83
2018-11-03T20:39:11.842Z,31.63
2018-11-03T20:41:42.972Z,33.37
2018-11-03T20:44:14.107Z,36.97
2018-11-03T20:46:45.801Z,32.93
2018-11-03T20:49:17.436Z,37.40
2018-11-03T20:51:48.218Z,35.27
2018-11-03T20:54:18.860Z,29.47
2018-11-03T20:56:49.583Z,39.10
2018-11-03T20:59:20.012Z,37.77
2018-11-03T21:01:50.796Z,39.17
2018-11-03T21:04:22.051Z,44.27
2018-11-03T21:06:53.162Z,42.47
2018-11-03T21:09:24.446Z,36.80
2018-11-03T21:11:55.119Z,37.40
2018-11-03T21:14:26.139Z,41.20
2018-11-03T21:16:56.997Z,41.77
2018-11-03T21:19:26.961Z,38.37
2018-11-03T21:21:57.569Z,34.90
2018-11-03T21:24:27.641Z,39.67
2018-11-03T21:26:56.712Z,60.73
2018-11-03T21:29:25.627Z,49.67
2018-11-03T21:31:54.442Z,37.50
2018-11-03T21:34:23.573Z,34.20
2018-11-03T21:36:52.369Z,35.60
2018-11-03T21:39:21.650Z,35.60
2018-11-03T21:41:50.594Z,30.77
2018-11-03T21:44:19.548Z,38.97
2018-11-03T21:46:48.524Z,34.97
2018-11-03T21:49:17.440Z,36.43
2018-11-03T21:51:46.247Z,34.37
2018-11-03T21:54:15.275Z,36.50
2018-11-03T21:56:44.138Z,39.53
2018-11-03T21:59:13.067Z,38.00
2018-11-03T22:01:42.019Z,37.60
2018-11-03T22:04:10.852Z,50.50
2018-11-03T22:06:39.744Z,56.17
2018-11-03T22:09:11.111Z,41.50
2018-11-03T22:11:39.958Z,53.87
2018-11-03T22:14:08.893Z,51.48
2018-11-03T22:16:37.825Z,41.67
2018-11-03T22:19:06.787Z,38.90
2018-11-03T22:21:35.715Z,35.77
2018-11-03T22:24:04.819Z,34.73
2018-11-03T22:26:33.595Z,34.20
2018-11-03T22:29:02.269Z,35.30
2018-11-03T22:31:31.324Z,35.83
2018-11-03T22:34:00.225Z,38.20
2018-11-03T22:36:29.265Z,33.60
2018-11-03T22:38:58.778Z,36.90
2018-11-03T22:41:27.755Z,43.50
2018-11-03T22:43:56.685Z,43.40
2018-11-03T22:46:25.458Z,34.67
2018-11-03T22:48:54.249Z,39.10
2018-11-03T22:51:23.344Z,39.57
2018-11-03T22:53:52.261Z,38.93
2018-11-03T22:56:21.042Z,36.90
2018-11-03T22:58:50.019Z,37.83
2018-11-03T23:01:18.922Z,36.77
2018-11-03T23:03:47.994Z,37.67
2018-11-03T23:06:16.940Z,36.93
2018-11-03T23:08:45.693Z,40.33
2018-11-03T23:11:14.673Z,41.87
2018-11-03T23:13:43.488Z,45.57
2018-11-03T23:16:12.600Z,49.00
2018-11-03T23:18:41.843Z,49.07
2018-11-03T23:21:10.767Z,44.27
2018-11-03T23:23:42.615Z,44.57
2018-11-03T23:26:11.734Z,48.17
2018-11-03T23:28:40.568Z,40.07
2018-11-03T23:31:09.393Z,43.20
2018-11-03T23:33:38.324Z,45.20
2018-11-03T23:36:07.385Z,39.13
2018-11-03T23:38:36.276Z,46.43
2018-11-03T23:41:05.177Z,38.80
2018-11-03T23:43:33.986Z,41.27
2018-11-03T23:46:02.776Z,41.43
2018-11-03T23:48:31.783Z,42.77
2018-11-03T23:51:00.427Z,38.87
2018-11-03T23:53:29.204Z,37.33
2018-11-03T23:55:58.036Z,35.63
2018-11-03T23:58:26.703Z,40.77
